createdAt,value
2022-12-07T00:01:43.265Z,7.65
2022-12-07T00:04:12.680Z,12.85
2022-12-07T00:06:41.308Z,11.32
2022-12-07T00:09:09.230Z,9.43
2022-12-07T00:11:36.480Z,8.35
2022-12-07T00:14:05.183Z,7.82
2022-12-07T00:16:33.653Z,7.13
2022-12-07T00:19:00.939Z,13.63
2022-12-07T00:21:32.779Z,6.60
2022-12-07T00:24:00.151Z,7.15
2022-12-07T00:26:34.552Z,8.55
2022-12-07T00:29:06.532Z,9.55
2022-12-07T00:31:36.159Z,7.80
2022-12-07T00:36:30.751Z,9.55
2022-12-07T00:38:59.506Z,6.20
2022-12-07T00:41:27.844Z,6.28
2022-12-07T00:43:55.480Z,9.55
2022-12-07T00:46:23.312Z,7.72
2022-12-07T00:48:52.588Z,13.15
2022-12-07T00:51:21.737Z,8.68
2022-12-07T00:53:49.116Z,12.82
2022-12-07T00:56:17.620Z,9.75
2022-12-07T00:58:45.090Z,7.78
2022-12-07T01:01:13.137Z,6.72
2022-12-07T01:03:40.401Z,7.70
2022-12-07T01:06:07.934Z,8.50
2022-12-07T01:08:35.260Z,5.95
2022-12-07T01:11:04.186Z,5.75
2022-12-07T01:13:31.594Z,6.85
2022-12-07T01:16:03.045Z,8.25
2022-12-07T01:18:31.107Z,4.32
2022-12-07T01:21:06.759Z,9.98
2022-12-07T01:23:34.403Z,6.55
2022-12-07T01:26:02.624Z,5.32
2022-12-07T01:28:30.073Z,5.28
2022-12-07T01:31:08.484Z,5.72
2022-12-07T01:33:40.118Z,7.20
2022-12-07T01:36:08.990Z,7.60
2022-12-07T01:38:36.411Z,13.48
2022-12-07T01:41:03.669Z,10.23
2022-12-07T01:43:31.927Z,4.63
2022-12-07T01:45:59.540Z,6.60
2022-12-07T01:48:38.919Z,6.20
2022-12-07T01:51:10.554Z,6.43
2022-12-07T01:53:39.890Z,6.22
2022-12-07T01:56:10.106Z,7.38
2022-12-07T01:58:38.270Z,4.93
2022-12-07T02:01:05.984Z,4.97
2022-12-07T02:03:38.236Z,6.22
2022-12-07T02:06:06.467Z,3.63
2022-12-07T02:08:33.955Z,4.45
2022-12-07T02:11:02.171Z,4.70
2022-12-07T02:13:31.435Z,6.22
2022-12-07T02:16:17.550Z,4.63
2022-12-07T02:19:00.282Z,5.18
2022-12-07T02:21:30.651Z,3.90
2022-12-07T02:24:16.202Z,3.03
2022-12-07T02:26:46.576Z,4.10
2022-12-07T02:29:28.812Z,3.00
2022-12-07T02:32:08.566Z,4.88
2022-12-07T02:34:45.860Z,4.82
2022-12-07T02:37:24.094Z,3.95
2022-12-07T02:39:57.544Z,6.28
2022-12-07T02:42:28.849Z,3.88
2022-12-07T02:44:56.281Z,2.85
2022-12-07T02:47:24.316Z,4.35
2022-12-07T02:49:51.889Z,6.22
2022-12-07T02:52:19.144Z,4.53
2022-12-07T02:54:46.407Z,7.82
2022-12-07T02:57:28.294Z,7.75
2022-12-07T03:00:07.110Z,5.85
2022-12-07T03:02:37.427Z,5.23
2022-12-07T03:05:07.931Z,5.22
2022-12-07T03:07:39.570Z,5.72
2022-12-07T03:10:15.990Z,3.78
2022-12-07T03:12:49.938Z,3.58
2022-12-07T03:15:20.212Z,3.22
2022-12-07T03:17:48.427Z,7.20
2022-12-07T03:20:19.476Z,3.17
2022-12-07T03:22:48.601Z,5.60
2022-12-07T03:25:17.035Z,2.63
2022-12-07T03:27:53.107Z,7.78
2022-12-07T03:30:22.170Z,1.50
2022-12-07T03:32:49.441Z,5.68
2022-12-07T03:35:19.471Z,2.38
2022-12-07T03:37:57.544Z,2.67
2022-12-07T03:40:28.054Z,6.10
2022-12-07T03:42:56.288Z,4.75
2022-12-07T03:45:26.323Z,3.25
2022-12-07T03:48:21.047Z,3.72
2022-12-07T03:51:02.316Z,4.95
2022-12-07T03:53:49.857Z,8.88
2022-12-07T03:56:17.340Z,5.47
2022-12-07T03:58:47.431Z,6.80
2022-12-07T04:01:14.761Z,8.50
2022-12-07T04:03:42.051Z,6.50
2022-12-07T04:06:09.287Z,5.82
2022-12-07T04:08:36.523Z,3.55
2022-12-07T04:11:03.843Z,9.43
2022-12-07T04:13:51.061Z,8.73
2022-12-07T04:16:18.423Z,7.28
2022-12-07T04:18:45.796Z,8.50
2022-12-07T04:21:13.025Z,4.90
2022-12-07T04:23:40.360Z,7.55
2022-12-07T04:26:07.592Z,7.18
2022-12-07T04:28:34.879Z,3.22
2022-12-07T04:31:02.109Z,5.97
2022-12-07T04:33:29.489Z,4.47
2022-12-07T04:35:56.833Z,6.18
2022-12-07T04:38:24.087Z,6.68
2022-12-07T04:40:53.831Z,5.32
2022-12-07T04:45:49.217Z,2.42
2022-12-07T04:48:16.582Z,5.28
2022-12-07T04:50:46.325Z,5.07
2022-12-07T04:53:13.974Z,2.97
2022-12-07T04:55:41.246Z,5.13
2022-12-07T04:58:08.656Z,7.38
2022-12-07T05:00:35.890Z,5.03
2022-12-07T05:03:03.134Z,6.50
2022-12-07T05:05:30.520Z,4.10
2022-12-07T05:07:57.808Z,6.00
2022-12-07T05:10:25.168Z,4.30
2022-12-07T05:12:52.509Z,7.97
2022-12-07T05:15:19.833Z,4.72
2022-12-07T05:17:49.601Z,6.97
2022-12-07T05:22:43.961Z,7.15
2022-12-07T05:25:11.680Z,5.47
2022-12-07T05:27:38.957Z,5.88
2022-12-07T05:30:06.789Z,4.68
2022-12-07T05:32:34.256Z,7.50
2022-12-07T05:35:01.482Z,8.27
2022-12-07T05:37:28.773Z,3.53
2022-12-07T05:39:56.037Z,8.55
2022-12-07T05:42:23.336Z,6.20
2022-12-07T05:44:53.258Z,7.72
2022-12-07T05:47:20.509Z,8.18
2022-12-07T05:49:48.013Z,5.72
2022-12-07T05:52:15.304Z,6.35
2022-12-07T05:54:42.521Z,8.30
2022-12-07T05:57:12.543Z,6.55
2022-12-07T05:59:39.775Z,6.43
2022-12-07T06:02:11.531Z,6.82
2022-12-07T06:04:40.411Z,8.82
2022-12-07T06:07:08.051Z,5.80
2022-12-07T06:09:35.709Z,5.47
2022-12-07T06:12:22.613Z,5.78
2022-12-07T06:14:50.112Z,9.43
2022-12-07T06:17:17.726Z,4.45
2022-12-07T06:19:44.911Z,6.90
2022-12-07T06:22:12.768Z,3.95
2022-12-07T06:24:40.190Z,8.32
2022-12-07T06:27:07.534Z,4.43
2022-12-07T06:29:36.384Z,6.35
2022-12-07T06:32:04.142Z,8.88
2022-12-07T06:34:36.941Z,9.18
2022-12-07T06:39:32.367Z,4.40
2022-12-07T06:41:59.787Z,6.00
2022-12-07T06:44:27.207Z,6.13
2022-12-07T06:47:07.002Z,8.82
2022-12-07T06:49:42.132Z,5.78
2022-12-07T06:52:09.417Z,8.77
2022-12-07T06:54:36.733Z,7.03
2022-12-07T06:57:06.248Z,10.35
2022-12-07T06:59:33.442Z,6.07
2022-12-07T07:02:00.829Z,6.57
2022-12-07T07:04:28.083Z,6.25
2022-12-07T07:06:59.760Z,10.70
2022-12-07T07:09:28.157Z,8.30
2022-12-07T07:11:55.441Z,9.05
2022-12-07T07:14:22.943Z,7.22
2022-12-07T07:16:50.259Z,6.28
2022-12-07T07:19:17.578Z,8.35
2022-12-07T07:21:44.861Z,7.45
2022-12-07T07:24:14.797Z,8.70
2022-12-07T07:26:42.117Z,5.80
2022-12-07T07:29:09.433Z,5.82
2022-12-07T07:31:38.168Z,6.40
2022-12-07T07:34:05.898Z,4.87
2022-12-07T07:36:33.081Z,7.80
2022-12-07T07:39:00.316Z,11.05
2022-12-07T07:41:27.590Z,12.05
2022-12-07T07:43:57.762Z,12.43
2022-12-07T07:46:40.848Z,8.60
2022-12-07T07:49:08.453Z,14.10
2022-12-07T07:51:35.728Z,12.90
2022-12-07T07:54:02.942Z,14.68
2022-12-07T07:56:30.233Z,12.38
2022-12-07T07:58:57.590Z,11.80
2022-12-07T08:01:24.840Z,9.52
2022-12-07T08:03:52.126Z,11.50
2022-12-07T08:06:19.348Z,13.05
2022-12-07T08:08:46.740Z,16.48
2022-12-07T08:11:14.020Z,9.48
2022-12-07T08:13:41.540Z,10.50
2022-12-07T08:16:10.328Z,10.07
2022-12-07T08:18:38.063Z,13.43
2022-12-07T08:21:05.626Z,12.68
2022-12-07T08:23:39.559Z,7.72
2022-12-07T08:26:11.883Z,8.45
2022-12-07T08:28:39.383Z,9.68
2022-12-07T08:31:08.330Z,7.40
2022-12-07T08:33:36.230Z,10.35
2022-12-07T08:36:04.611Z,11.13
2022-12-07T08:38:32.288Z,10.93
2022-12-07T08:41:00.713Z,9.30
2022-12-07T08:43:28.111Z,9.07
2022-12-07T08:46:00.157Z,6.88
2022-12-07T08:48:27.742Z,15.35
2022-12-07T08:50:54.996Z,12.05
2022-12-07T08:53:22.531Z,22.05
2022-12-07T08:55:50.038Z,18.60
2022-12-07T08:58:17.331Z,17.20
2022-12-07T09:00:47.376Z,14.13
2022-12-07T09:03:14.741Z,12.40
2022-12-07T09:05:42.031Z,14.73
2022-12-07T09:08:09.957Z,22.95
2022-12-07T09:10:37.302Z,15.73
2022-12-07T09:13:04.599Z,24.45
2022-12-07T09:15:32.452Z,45.42
2022-12-07T09:17:59.931Z,18.58
2022-12-07T09:20:28.257Z,22.58
2022-12-07T09:22:55.792Z,12.98
2022-12-07T09:25:23.037Z,10.50
2022-12-07T09:27:50.478Z,12.40
2022-12-07T09:30:17.826Z,17.30
2022-12-07T09:32:45.027Z,13.52
2022-12-07T09:35:12.459Z,17.92
2022-12-07T09:37:39.856Z,17.05
2022-12-07T09:40:08.001Z,18.33
2022-12-07T09:42:44.676Z,17.23
2022-12-07T09:45:16.403Z,22.77
2022-12-07T09:47:44.011Z,20.25
2022-12-07T09:50:32.366Z,17.17
2022-12-07T09:53:23.849Z,16.10
2022-12-07T09:55:51.161Z,20.15
2022-12-07T09:58:36.683Z,13.27
2022-12-07T10:01:11.187Z,12.60
2022-12-07T10:03:46.906Z,8.48
2022-12-07T10:06:15.229Z,13.80
2022-12-07T10:08:44.257Z,12.02
2022-12-07T10:11:12.601Z,5.80
2022-12-07T10:13:46.083Z,4.32
2022-12-07T10:16:32.391Z,10.98
2022-12-07T10:19:19.245Z,7.40
2022-12-07T10:22:02.804Z,10.07
2022-12-07T10:24:30.542Z,5.90
2022-12-07T10:26:58.041Z,6.95
2022-12-07T10:29:41.252Z,5.30
2022-12-07T10:32:28.804Z,5.13
2022-12-07T10:35:15.971Z,8.15
2022-12-07T10:37:46.823Z,9.10
2022-12-07T10:40:26.417Z,7.40
2022-12-07T10:43:09.080Z,5.97
2022-12-07T10:45:46.925Z,7.38
2022-12-07T10:48:39.693Z,8.18
2022-12-07T10:51:18.393Z,12.90
2022-12-07T10:53:45.820Z,5.13
2022-12-07T10:56:22.409Z,6.13
2022-12-07T10:59:11.154Z,5.47
2022-12-07T11:01:38.535Z,8.53
2022-12-07T11:04:24.416Z,5.60
2022-12-07T11:06:57.652Z,5.68
2022-12-07T11:09:45.071Z,9.13
2022-12-07T11:12:36.265Z,7.60
2022-12-07T11:15:06.707Z,4.90
2022-12-07T11:17:52.369Z,5.22
2022-12-07T11:20:31.596Z,5.70
2022-12-07T11:23:01.970Z,3.55
2022-12-07T11:25:33.705Z,9.38
2022-12-07T11:28:07.244Z,14.73
2022-12-07T11:30:55.001Z,5.68
2022-12-07T11:33:29.091Z,7.65
2022-12-07T11:36:05.832Z,8.05
2022-12-07T11:38:33.227Z,10.60
2022-12-07T11:41:14.860Z,7.30
2022-12-07T11:46:49.876Z,9.57
2022-12-07T11:49:29.089Z,6.68
2022-12-07T11:51:59.757Z,5.72
2022-12-07T11:54:29.999Z,3.97
2022-12-07T11:57:05.172Z,5.95
2022-12-07T11:59:40.315Z,12.18
2022-12-07T12:02:17.874Z,10.63
2022-12-07T12:05:01.952Z,8.13
2022-12-07T12:10:29.234Z,7.88
2022-12-07T12:16:05.912Z,7.93
2022-12-07T12:18:41.630Z,4.15
2022-12-07T12:21:08.998Z,6.68
2022-12-07T12:23:39.376Z,8.43
2022-12-07T12:26:08.281Z,3.03
2022-12-07T12:28:48.628Z,6.35
2022-12-07T12:31:20.506Z,6.22
2022-12-07T12:33:55.673Z,6.05
2022-12-07T12:36:26.692Z,8.43
2022-12-07T12:39:00.252Z,7.20
2022-12-07T12:41:40.305Z,10.90
2022-12-07T12:44:16.897Z,7.10
2022-12-07T12:46:54.847Z,8.43
2022-12-07T12:49:22.148Z,4.82
2022-12-07T12:51:51.030Z,6.32
2022-12-07T12:54:26.740Z,5.38
2022-12-07T12:57:13.318Z,8.55
2022-12-07T12:59:40.636Z,4.97
2022-12-07T13:02:27.826Z,3.85
2022-12-07T13:05:18.092Z,7.40
2022-12-07T13:07:48.662Z,5.50
2022-12-07T13:10:36.361Z,6.70
2022-12-07T13:13:06.782Z,4.97
2022-12-07T13:15:53.884Z,3.10
2022-12-07T13:18:30.035Z,5.13
2022-12-07T13:21:26.188Z,3.45
2022-12-07T13:23:59.747Z,2.67
2022-12-07T13:26:35.655Z,6.80
2022-12-07T13:29:12.147Z,3.95
2022-12-07T13:31:44.457Z,3.60
2022-12-07T13:34:31.736Z,5.00
2022-12-07T13:36:59.596Z,5.00
2022-12-07T13:39:27.725Z,4.95
2022-12-07T13:41:57.625Z,6.93
2022-12-07T13:44:25.833Z,4.93
2022-12-07T13:47:08.358Z,6.45
2022-12-07T13:49:39.485Z,6.50
2022-12-07T13:52:17.923Z,3.53
2022-12-07T13:54:46.070Z,4.53
2022-12-07T13:57:13.436Z,5.15
2022-12-07T13:59:40.655Z,6.53
2022-12-07T14:02:29.414Z,4.57
2022-12-07T14:05:10.446Z,6.80
2022-12-07T14:07:56.892Z,3.60
2022-12-07T14:10:34.887Z,4.68
2022-12-07T14:13:03.090Z,4.05
2022-12-07T14:15:31.930Z,3.25
2022-12-07T14:18:04.243Z,3.13
2022-12-07T14:20:34.796Z,9.20
2022-12-07T14:23:10.200Z,2.85
2022-12-07T14:25:51.694Z,4.53
2022-12-07T14:28:28.152Z,3.15
2022-12-07T14:30:55.414Z,4.15
2022-12-07T14:33:23.021Z,4.13
2022-12-07T14:35:50.506Z,4.60
2022-12-07T14:38:19.542Z,11.63
2022-12-07T14:40:46.900Z,7.78
2022-12-07T14:43:15.184Z,6.40
2022-12-07T14:45:42.620Z,6.15
2022-12-07T14:53:53.169Z,5.88
2022-12-07T14:56:24.658Z,5.55
2022-12-07T14:58:51.907Z,3.85
2022-12-07T15:01:19.431Z,7.20
2022-12-07T15:03:46.909Z,5.22
2022-12-07T15:06:18.085Z,4.85
2022-12-07T15:08:45.641Z,6.07
2022-12-07T15:11:16.413Z,7.57
2022-12-07T15:14:04.852Z,5.60
2022-12-07T15:16:52.489Z,4.90
2022-12-07T15:19:28.400Z,5.80
2022-12-07T15:22:00.753Z,5.95
2022-12-07T15:24:28.488Z,6.70
2022-12-07T15:26:55.842Z,4.78
2022-12-07T15:29:23.984Z,7.75
2022-12-07T15:31:57.563Z,7.97
2022-12-07T15:34:26.290Z,8.88
2022-12-07T15:36:53.609Z,5.25
2022-12-07T15:39:20.850Z,8.70
2022-12-07T15:41:48.130Z,5.00
2022-12-07T15:44:34.191Z,8.20
2022-12-07T15:47:01.799Z,6.35
2022-12-07T15:49:29.831Z,5.93
2022-12-07T15:51:57.088Z,7.57
2022-12-07T15:54:25.829Z,5.65
2022-12-07T15:56:53.605Z,7.03
2022-12-07T15:59:21.121Z,6.20
2022-12-07T16:01:48.579Z,4.70
2022-12-07T16:04:15.909Z,6.63
2022-12-07T16:06:43.124Z,5.45
2022-12-07T16:09:10.398Z,6.32
2022-12-07T16:11:37.889Z,5.82
2022-12-07T16:14:05.566Z,4.05
2022-12-07T16:16:34.330Z,4.22
2022-12-07T16:19:01.789Z,3.92
2022-12-07T16:21:29.061Z,6.53
2022-12-07T16:23:59.391Z,5.82
2022-12-07T16:26:26.725Z,7.07
2022-12-07T16:28:54.896Z,4.50
2022-12-07T16:31:24.265Z,5.40
2022-12-07T16:33:52.013Z,6.72
2022-12-07T16:36:39.966Z,6.15
2022-12-07T16:39:07.010Z,6.78
2022-12-07T16:41:34.372Z,3.92
2022-12-07T16:44:04.266Z,3.85
2022-12-07T16:46:35.264Z,9.95
2022-12-07T16:49:02.527Z,8.82
2022-12-07T16:51:29.877Z,9.90
2022-12-07T16:53:57.355Z,8.93
2022-12-07T16:56:25.649Z,12.77
2022-12-07T16:58:53.572Z,14.82
2022-12-07T17:01:23.473Z,12.52
2022-12-07T17:03:51.033Z,13.20
2022-12-07T17:06:23.509Z,19.80
2022-12-07T17:08:51.559Z,8.57
2022-12-07T17:11:20.724Z,9.55
2022-12-07T17:14:07.150Z,11.65
2022-12-07T17:16:36.029Z,9.25
2022-12-07T17:19:07.304Z,6.53
2022-12-07T17:21:36.447Z,10.05
2022-12-07T17:24:06.873Z,7.60
2022-12-07T17:26:35.957Z,5.90
2022-12-07T17:29:04.526Z,7.03
2022-12-07T17:31:33.376Z,7.28
2022-12-07T17:34:00.999Z,9.13
2022-12-07T17:36:31.448Z,5.63
2022-12-07T17:38:58.991Z,8.35
2022-12-07T17:41:48.693Z,8.27
2022-12-07T17:44:21.111Z,7.30
2022-12-07T17:46:49.449Z,8.38
2022-12-07T17:49:16.865Z,7.75
2022-12-07T17:52:02.748Z,16.15
2022-12-07T17:54:30.322Z,18.90
2022-12-07T17:56:57.892Z,10.30
2022-12-07T17:59:25.544Z,9.52
2022-12-07T18:01:52.797Z,11.27
2022-12-07T18:04:20.079Z,12.80
2022-12-07T18:06:52.054Z,9.10
2022-12-07T18:09:20.966Z,11.02
2022-12-07T18:11:48.228Z,14.32
2022-12-07T18:14:16.620Z,14.73
2022-12-07T18:16:43.945Z,9.65
2022-12-07T18:19:13.591Z,12.23
2022-12-07T18:24:10.736Z,13.32
2022-12-07T18:26:38.105Z,11.77
2022-12-07T18:29:07.194Z,7.78
2022-12-07T18:31:35.194Z,8.55
2022-12-07T18:34:04.681Z,9.02
2022-12-07T18:36:32.354Z,11.18
2022-12-07T18:38:59.667Z,12.38
2022-12-07T18:41:27.038Z,12.85
2022-12-07T18:43:54.335Z,9.05
2022-12-07T18:46:45.399Z,12.65
2022-12-07T18:49:14.975Z,13.60
2022-12-07T18:51:42.734Z,12.73
2022-12-07T18:54:10.018Z,17.40
2022-12-07T18:56:37.427Z,16.20
2022-12-07T18:59:23.866Z,10.88
2022-12-07T19:01:52.956Z,11.73
2022-12-07T19:04:20.523Z,10.05
2022-12-07T19:06:48.696Z,13.93
2022-12-07T19:09:16.327Z,14.23
2022-12-07T19:11:49.520Z,12.95
2022-12-07T19:14:26.161Z,10.35
2022-12-07T19:16:55.204Z,10.45
2022-12-07T19:19:23.660Z,12.98
2022-12-07T19:21:51.077Z,4.75
2022-12-07T19:26:53.055Z,8.80
2022-12-07T19:29:20.463Z,11.77
2022-12-07T19:31:49.168Z,7.20
2022-12-07T19:34:18.062Z,6.03
2022-12-07T19:36:45.955Z,5.78
2022-12-07T19:39:15.441Z,11.77
2022-12-07T19:41:46.681Z,14.98
2022-12-07T19:44:18.519Z,8.40
2022-12-07T19:46:47.064Z,6.93
2022-12-07T19:49:20.709Z,9.80
2022-12-07T19:51:49.925Z,5.00
2022-12-07T19:54:18.802Z,7.50
2022-12-07T19:56:46.512Z,6.80
2022-12-07T19:59:14.294Z,10.98
2022-12-07T20:01:42.299Z,7.07
2022-12-07T20:04:12.426Z,8.63
2022-12-07T20:06:40.023Z,7.68
2022-12-07T20:09:07.311Z,13.55
2022-12-07T20:11:53.359Z,10.43
2022-12-07T20:14:20.702Z,9.93
2022-12-07T20:16:48.225Z,12.90
2022-12-07T20:19:16.302Z,9.00
2022-12-07T20:21:44.299Z,11.80
2022-12-07T20:24:12.633Z,10.10
2022-12-07T20:26:39.915Z,12.73
2022-12-07T20:29:12.002Z,9.98
2022-12-07T20:31:43.369Z,12.23
2022-12-07T20:34:10.998Z,17.92
2022-12-07T20:36:38.901Z,10.32
2022-12-07T20:39:06.641Z,9.02
2022-12-07T20:41:53.128Z,11.88
2022-12-07T20:44:20.606Z,6.45
2022-12-07T20:46:48.135Z,16.15
2022-12-07T20:49:17.172Z,8.95
2022-12-07T20:51:45.208Z,5.88
2022-12-07T20:54:13.007Z,10.75
2022-12-07T20:56:40.962Z,10.57
2022-12-07T20:59:09.932Z,10.80
2022-12-07T21:01:37.810Z,9.25
2022-12-07T21:04:05.235Z,13.05
2022-12-07T21:06:32.568Z,12.45
2022-12-07T21:09:01.092Z,12.82
2022-12-07T21:11:29.945Z,12.43
2022-12-07T21:13:57.425Z,10.88
2022-12-07T21:16:26.541Z,11.82
2022-12-07T21:18:55.188Z,8.95
2022-12-07T21:21:22.835Z,8.20
2022-12-07T21:23:51.274Z,10.65
2022-12-07T21:26:20.410Z,11.10
2022-12-07T21:28:48.345Z,8.50
2022-12-07T21:31:15.919Z,8.23
2022-12-07T21:33:44.221Z,9.95
2022-12-07T21:36:15.558Z,8.40
2022-12-07T21:38:42.855Z,6.18
2022-12-07T21:41:14.130Z,4.18
2022-12-07T21:43:41.610Z,7.63
2022-12-07T21:46:09.315Z,13.15
2022-12-07T21:48:36.944Z,11.73
2022-12-07T21:51:08.591Z,11.63
2022-12-07T21:53:37.486Z,8.85
2022-12-07T21:56:04.941Z,8.63
2022-12-07T21:58:32.533Z,8.68
2022-12-07T22:01:00.028Z,6.88
2022-12-07T22:03:27.550Z,5.72
2022-12-07T22:06:00.844Z,7.43
2022-12-07T22:08:28.390Z,8.02
2022-12-07T22:10:55.872Z,9.15
2022-12-07T22:13:43.093Z,11.10
2022-12-07T22:16:10.473Z,11.55
2022-12-07T22:18:37.981Z,6.68
2022-12-07T22:21:05.430Z,6.13
2022-12-07T22:23:35.334Z,6.30
2022-12-07T22:26:06.358Z,6.68
2022-12-07T22:28:34.008Z,6.60
2022-12-07T22:31:05.076Z,7.25
2022-12-07T22:33:32.683Z,6.97
2022-12-07T22:36:00.022Z,6.53
2022-12-07T22:38:27.509Z,7.20
2022-12-07T22:40:55.454Z,7.82
2022-12-07T22:43:23.049Z,6.68
2022-12-07T22:45:56.811Z,6.43
2022-12-07T22:48:24.550Z,6.68
2022-12-07T22:50:52.688Z,8.20
2022-12-07T22:53:20.471Z,5.50
2022-12-07T22:55:47.752Z,4.43
2022-12-07T22:58:15.523Z,5.38
2022-12-07T23:00:52.920Z,6.55
2022-12-07T23:03:20.301Z,5.35
2022-12-07T23:05:48.731Z,6.60
2022-12-07T23:08:16.478Z,7.32
2022-12-07T23:10:47.962Z,6.40
2022-12-07T23:13:31.945Z,5.93
2022-12-07T23:16:08.529Z,7.45
2022-12-07T23:18:35.902Z,8.73
2022-12-07T23:21:03.130Z,8.13
2022-12-07T23:23:30.362Z,5.57
2022-12-07T23:26:02.344Z,6.57
2022-12-07T23:28:29.603Z,7.47
2022-12-07T23:31:02.176Z,7.28
2022-12-07T23:33:29.569Z,8.55
2022-12-07T23:35:56.826Z,9.73
2022-12-07T23:38:24.086Z,5.32
2022-12-07T23:40:51.724Z,6.30
2022-12-07T23:43:18.957Z,8.05
2022-12-07T23:45:47.140Z,6.13
2022-12-07T23:48:14.345Z,6.78
2022-12-07T23:50:41.750Z,7.25
2022-12-07T23:53:09.128Z,5.65
2022-12-07T23:55:36.406Z,6.32
2022-12-07T23:58:03.719Z,8.20
